• Join FlightAware (Why Join?)
  • Login
  • US Flag 
10:18AM EDT


 

Airport Tracker/Info


-or-


 

Live Flight TrackerFlight Track Log ✈ LAN935 ✈ 11-May-2013 ✈ SAME / MDZ - SCEL / SCL

Flight Track Log - Related Links

Times and Time Zones

All times are in EDT time to prevent confusion due to time zone crossing. See the LAN935 flight status page for this flight to view local times or setup timezone preferences in your user account.

Time Position Orientation Groundspeed Altitude Reporting Facility
EDT Latitude Longitude Course Direction KTS MPH feet Rate Location/Type
03:31PM -32.8240 -68.7930 North 161 185 2,400  Level FlightAware
03:32PM -32.8090 -68.7910 North 169 194 3,100 1,860 Climbing FlightAware
03:32PM -32.8000 -68.7830 37° Northeast 182 209 3,500 1,380 Climbing FlightAware
03:32PM -32.7940 -68.7670 66° East 204 235 3,800 1,320 Climbing FlightAware
03:32PM -32.7860 -68.7370 72° East 245 282 4,400 2,880 Climbing FlightAware
03:33PM -32.7990 -68.6840 106° East 250 288 7,200 3,420 Climbing FlightAware
03:34PM -32.8420 -68.6920 189° South 256 295 9,300 3,300 Climbing FlightAware
03:35PM -32.8470 -68.7430 263° West 233 268 11,600 2,220 Climbing FlightAware
03:36PM -32.8510 -68.8330 267° West 312 359 13,000 2,160 Climbing FlightAware
03:36PM -32.8530 -68.8900 268° West 303 349 15,100 2,160 Climbing FlightAware
03:38PM -32.8580 -69.0580 268° West 374 430 17,500 1,860 Climbing FlightAware
03:38PM -32.8610 -69.1490 268° West 383 441 19,300 2,280 Climbing FlightAware
03:39PM -32.8630 -69.2290 268° West 384 442 20,800 2,220 Climbing FlightAware
03:40PM -32.8660 -69.3200 268° West 390 449 22,300 2,520 Climbing FlightAware
03:40PM -32.8680 -69.4090 268° West 376 433 24,400 2,160 Climbing FlightAware
03:41PM -32.8710 -69.5160 268° West 380 437 25,800 1,020 Climbing FlightAware
03:42PM -32.8730 -69.5960 268° West 376 433 26,000 120 Climbing FlightAware
03:43PM -32.8760 -69.6970 268° West 368 423 26,000  Level FlightAware
03:44PM -32.8790 -69.7830 268° West 368 423 26,000  Level FlightAware
03:44PM -32.8810 -69.8520 268° West 368 423 26,000  Level FlightAware
03:45PM -32.8830 -69.9210 268° West 368 423 26,000 -300 Level FlightAware
03:46PM -32.8790 -70.0480 272° West 382 440 25,600 -1,500 Descending FlightAware
03:46PM -32.8730 -70.1180 276° West 394 453 24,000 -2,280 Descending FlightAware
03:47PM -32.8660 -70.1870 277° West 383 441 23,000 -780 Descending FlightAware
03:48PM -32.8590 -70.2730 276° West 383 441 23,000 -2,820 Level FlightAware
03:48PM -32.8490 -70.3730 277° West 374 430 19,300 -3,060 Descending FlightAware
03:49PM -32.8390 -70.4840 276° West 372 428 18,200 -780 Descending FlightAware
03:50PM -32.8340 -70.5360 277° West 372 428 18,200  Level FlightAware
03:50PM -32.8300 -70.5880 275° West 372 428 18,200  Level FlightAware
03:51PM -32.8250 -70.6400 277° West 372 428 18,200  Level FlightAware
03:51PM -32.8190 -70.7090 276° West 372 428 18,200  Level FlightAware
03:52PM -32.8140 -70.7610 277° West 372 428 18,200  Level FlightAware
03:53PM -32.8080 -70.8300 276° West 372 428 18,200 -3,300 Level FlightAware
03:55PM -32.8833 -70.8243 176° South  Level Estimated
03:56PM -32.9215 -70.8215 176° South  Level Estimated
03:56PM -33.1710 -70.7980 176° South 240 276 4,900  Level FlightAware
03:56PM -33.2020 -70.7960 177° South 200 230 4,800 -480 Descending FlightAware
03:57PM -33.2200 -70.7950 177° South 190 219 4,500 -1,200 Descending FlightAware
03:57PM -33.2420 -70.7940 178° South 190 219 3,900 -1,080 Descending FlightAware
03:58PM -33.2580 -70.7930 177° South 186 214 3,700 -300 Descending FlightAware
03:58PM -33.2790 -70.7920 178° South 186 214 3,700 -840 Level FlightAware
04:00PM -33.3460 -70.7880 177° South 135 155 2,000 -1,020 Descending FlightAware
04:02PM -33.3833 -70.7667 244° Southwest  Level FlightAware Approximate